Chicago, Illinois
Current Conditions -  °F | °C
As of 2:26 PM on Monday 26 Jan 2015 (Local Time) from KMDW Reporting Station
Light Snow Light Snow  
Wind Chill: 22°   Ceiling: 2700
Heat Index: 28°   Visibility: 3mi
Dew Point: 22°   Wind: 6mph
Humidity: 78%   Direction: 180°S
Pressure: 29.87"   Gusts: NA
Location:  41.88°N, 87.63°W
Report Text: KMDW 262026Z 18005KT 3SM -SN SCT016 BKN027 OVC037 M02/M06 A2987 RMK AO2 P0000 T10221056
Loading
Personal Weather Stations






























Interactive Weather Map New forecast layout! Learn more

10-Day Weather Forecast

Advertisements
Track Severe Weather on mobile